createdAt,value
2018-06-05T00:00:33.011Z,20.30
2018-06-05T00:03:01.898Z,20.30
2018-06-05T00:05:30.806Z,20.20
2018-06-05T00:07:59.726Z,20.20
2018-06-05T00:10:28.664Z,20.20
2018-06-05T00:12:57.566Z,20.20
2018-06-05T00:15:26.737Z,20.10
2018-06-05T00:17:55.887Z,20.20
2018-06-05T00:20:25.160Z,20.10
2018-06-05T00:22:54.274Z,20.00
2018-06-05T00:25:23.518Z,20.00
2018-06-05T00:27:52.595Z,20.00
2018-06-05T00:30:21.743Z,20.00
2018-06-05T00:32:50.882Z,19.90
2018-06-05T00:35:19.975Z,19.90
2018-06-05T00:37:49.098Z,19.90
2018-06-05T00:40:18.217Z,19.80
2018-06-05T00:42:47.311Z,19.70
2018-06-05T00:45:16.419Z,19.60
2018-06-05T00:47:45.514Z,19.60
2018-06-05T00:50:14.628Z,19.60
2018-06-05T00:52:43.854Z,19.60
2018-06-05T00:55:12.965Z,19.50
2018-06-05T00:57:42.063Z,19.50
2018-06-05T01:00:11.142Z,19.40
2018-06-05T01:02:40.350Z,19.30
2018-06-05T01:05:09.439Z,19.30
2018-06-05T01:07:38.547Z,19.30
2018-06-05T01:10:07.655Z,19.20
2018-06-05T01:12:36.767Z,19.20
2018-06-05T01:15:05.881Z,19.20
2018-06-05T01:17:35.106Z,19.20
2018-06-05T01:20:04.626Z,19.20
2018-06-05T01:22:33.891Z,19.20
2018-06-05T01:25:02.990Z,19.10
2018-06-05T01:27:32.243Z,19.10
2018-06-05T01:30:01.390Z,19.10
2018-06-05T01:32:30.510Z,19.00
2018-06-05T01:34:59.799Z,19.00
2018-06-05T01:37:28.884Z,19.00
2018-06-05T01:39:58.008Z,18.90
2018-06-05T01:42:27.209Z,18.90
2018-06-05T01:44:56.474Z,18.90
2018-06-05T01:47:25.584Z,18.90
2018-06-05T01:49:54.690Z,18.90
2018-06-05T01:52:23.818Z,18.90
2018-06-05T01:54:52.984Z,18.80
2018-06-05T01:57:22.261Z,18.80
2018-06-05T01:59:51.379Z,18.80
2018-06-05T02:02:20.626Z,18.80
2018-06-05T02:04:49.723Z,18.80
2018-06-05T02:07:18.835Z,18.80
2018-06-05T02:09:47.963Z,18.80
2018-06-05T02:12:17.187Z,18.80
2018-06-05T02:14:46.356Z,18.80
2018-06-05T02:17:15.474Z,18.90
2018-06-05T02:19:44.575Z,18.80
2018-06-05T02:22:13.739Z,18.80
2018-06-05T02:24:42.911Z,18.80
2018-06-05T02:27:12.104Z,18.70
2018-06-05T02:29:41.282Z,18.70
2018-06-05T02:32:10.459Z,18.60
2018-06-05T02:34:39.651Z,18.50
2018-06-05T02:37:08.731Z,18.60
2018-06-05T02:39:37.851Z,18.50
2018-06-05T02:42:07.047Z,18.50
2018-06-05T02:44:36.276Z,18.50
2018-06-05T02:47:05.407Z,18.60
2018-06-05T02:49:34.532Z,18.60
2018-06-05T02:52:03.647Z,18.70
2018-06-05T02:54:32.742Z,18.70
2018-06-05T02:57:01.863Z,18.60
2018-06-05T02:59:30.984Z,18.50
2018-06-05T03:02:00.109Z,18.60
2018-06-05T03:04:29.214Z,18.60
2018-06-05T03:06:58.316Z,18.50
2018-06-05T03:09:27.438Z,18.40
2018-06-05T03:11:56.539Z,18.50
2018-06-05T03:14:25.648Z,18.50
2018-06-05T03:16:54.846Z,18.50
2018-06-05T03:19:23.959Z,18.50
2018-06-05T03:21:53.083Z,18.40
2018-06-05T03:24:22.191Z,18.40
2018-06-05T03:26:51.263Z,18.40
2018-06-05T03:29:20.371Z,18.30
2018-06-05T03:31:50.523Z,18.30
2018-06-05T03:34:19.635Z,18.30
2018-06-05T03:36:48.714Z,18.30
2018-06-05T03:39:17.827Z,18.20
2018-06-05T03:41:46.907Z,18.30
2018-06-05T03:44:16.003Z,18.30
2018-06-05T03:46:45.152Z,18.40
2018-06-05T03:49:14.283Z,18.40
2018-06-05T03:51:43.470Z,18.50
2018-06-05T03:54:12.958Z,18.40
2018-06-05T03:56:42.083Z,18.40
2018-06-05T03:59:11.318Z,18.30
2018-06-05T04:01:40.423Z,18.40
2018-06-05T04:04:09.534Z,18.40
2018-06-05T04:06:38.784Z,18.40
2018-06-05T04:09:07.907Z,18.40
2018-06-05T04:11:37.128Z,18.40
2018-06-05T04:14:06.235Z,18.50
2018-06-05T04:16:35.375Z,18.60
2018-06-05T04:19:04.528Z,18.50
2018-06-05T04:21:33.690Z,18.50
2018-06-05T04:24:02.864Z,18.50
2018-06-05T04:26:32.043Z,18.60
2018-06-05T04:29:01.256Z,18.60
2018-06-05T04:31:30.486Z,18.70
2018-06-05T04:33:59.750Z,18.70
2018-06-05T04:36:28.866Z,18.90
2018-06-05T04:38:58.119Z,19.00
2018-06-05T04:41:27.276Z,19.20
2018-06-05T04:43:56.402Z,19.30
2018-06-05T04:46:25.522Z,19.30
2018-06-05T04:48:54.634Z,19.30
2018-06-05T04:51:23.723Z,19.30
2018-06-05T04:53:52.959Z,19.40
2018-06-05T04:56:22.048Z,19.50
2018-06-05T04:58:51.242Z,19.60
2018-06-05T05:01:20.427Z,19.60
2018-06-05T05:03:49.524Z,19.70
2018-06-05T05:06:18.734Z,19.90
2018-06-05T05:08:47.919Z,20.00
2018-06-05T05:11:17.038Z,20.10
2018-06-05T05:13:46.124Z,20.30
2018-06-05T05:16:15.242Z,20.30
2018-06-05T05:18:44.338Z,20.40
2018-06-05T05:21:13.472Z,20.50
2018-06-05T05:23:42.568Z,20.60
2018-06-05T05:26:11.684Z,20.60
2018-06-05T05:28:40.795Z,20.60
2018-06-05T05:31:09.893Z,20.60
2018-06-05T05:33:39.005Z,20.70
2018-06-05T05:36:08.104Z,20.80
2018-06-05T05:38:37.219Z,20.90
2018-06-05T05:41:06.439Z,21.00
2018-06-05T05:43:35.674Z,21.10
2018-06-05T05:46:04.782Z,21.00
2018-06-05T05:48:33.909Z,21.10
2018-06-05T05:51:02.992Z,21.20
2018-06-05T05:53:32.127Z,21.10
2018-06-05T05:56:01.246Z,21.20
2018-06-05T05:58:30.508Z,21.20
2018-06-05T06:00:59.715Z,21.10
2018-06-05T06:03:28.911Z,21.20
2018-06-05T06:05:58.105Z,21.10
2018-06-05T06:08:27.264Z,21.10
2018-06-05T06:10:56.484Z,21.20
2018-06-05T06:13:26.046Z,21.30
2018-06-05T06:15:55.215Z,21.40
2018-06-05T06:18:24.331Z,21.60
2018-06-05T06:20:53.439Z,21.60
2018-06-05T06:23:22.594Z,21.70
2018-06-05T06:28:20.440Z,21.70
2018-06-05T06:30:49.675Z,21.70
2018-06-05T06:33:18.798Z,21.70
2018-06-05T06:35:47.947Z,21.80
2018-06-05T06:38:17.066Z,21.80
2018-06-05T06:40:46.159Z,21.90
2018-06-05T06:45:43.938Z,22.20
2018-06-05T06:48:13.046Z,22.30
2018-06-05T06:50:42.159Z,22.30
2018-06-05T06:53:11.319Z,22.30
2018-06-05T06:55:40.407Z,22.20
2018-06-05T07:00:38.227Z,22.50
2018-06-05T07:03:07.348Z,22.60
2018-06-05T07:05:36.461Z,22.60
2018-06-05T07:08:05.595Z,22.70
2018-06-05T07:10:34.695Z,22.80
2018-06-05T07:13:03.794Z,22.90
2018-06-05T07:15:32.914Z,23.00
2018-06-05T07:18:02.199Z,23.10
2018-06-05T07:20:31.335Z,23.20
2018-06-05T07:23:00.475Z,23.30
2018-06-05T07:25:29.604Z,23.10
2018-06-05T07:27:58.815Z,23.30
2018-06-05T07:30:28.133Z,23.50
2018-06-05T07:32:57.203Z,23.50
2018-06-05T07:35:26.932Z,23.50
2018-06-05T07:37:56.066Z,23.70
2018-06-05T07:40:25.275Z,23.80
2018-06-05T07:45:23.023Z,23.90
2018-06-05T07:47:52.142Z,23.60
2018-06-05T07:50:21.211Z,23.70
2018-06-05T07:52:50.331Z,23.90
2018-06-05T07:55:19.500Z,24.00
2018-06-05T07:57:48.559Z,24.20
2018-06-05T08:00:17.655Z,24.30
2018-06-05T08:02:46.779Z,24.40
2018-06-05T08:05:15.909Z,24.50
2018-06-05T08:07:45.010Z,24.30
2018-06-05T08:10:14.120Z,24.40
2018-06-05T08:12:43.475Z,24.50
2018-06-05T08:15:12.894Z,24.70
2018-06-05T08:17:42.184Z,24.70
2018-06-05T08:20:11.536Z,24.70
2018-06-05T08:22:57.056Z,24.80
2018-06-05T08:25:26.258Z,24.70
2018-06-05T08:27:55.363Z,24.90
2018-06-05T08:30:24.475Z,24.90
2018-06-05T08:32:53.571Z,24.80
2018-06-05T08:35:22.804Z,25.00
2018-06-05T08:37:51.283Z,25.10
2018-06-05T08:40:20.387Z,25.10
2018-06-05T08:42:49.481Z,25.10
2018-06-05T08:45:18.594Z,25.00
2018-06-05T08:50:16.358Z,25.50
2018-06-05T08:52:45.719Z,25.50
2018-06-05T08:55:14.795Z,25.60
2018-06-05T08:57:43.983Z,25.60
2018-06-05T09:00:13.112Z,25.60
2018-06-05T09:02:42.809Z,25.60
2018-06-05T09:05:11.979Z,25.90
2018-06-05T09:10:09.934Z,26.20
2018-06-05T09:12:39.594Z,26.40
2018-06-05T09:15:08.924Z,26.30
2018-06-05T09:17:38.363Z,26.40
2018-06-05T09:20:07.690Z,26.50
2018-06-05T09:22:36.811Z,26.50
2018-06-05T09:25:05.933Z,26.60
2018-06-05T09:27:35.321Z,26.80
2018-06-05T09:30:04.622Z,26.80
2018-06-05T09:32:33.845Z,26.90
2018-06-05T09:35:02.994Z,26.90
2018-06-05T09:37:32.088Z,27.00
2018-06-05T09:40:01.380Z,27.20
2018-06-05T09:42:30.580Z,27.20
2018-06-05T09:45:00.091Z,27.30
2018-06-05T09:47:29.544Z,27.50
2018-06-05T09:49:58.936Z,27.80
2018-06-05T09:52:28.381Z,27.60
2018-06-05T09:54:57.775Z,27.70
2018-06-05T09:57:27.213Z,27.70
2018-06-05T09:59:56.383Z,27.90
2018-06-05T10:02:25.703Z,27.80
2018-06-05T10:04:54.883Z,27.50
2018-06-05T10:07:24.026Z,27.20
2018-06-05T10:09:53.160Z,27.20
2018-06-05T10:12:22.306Z,27.50
2018-06-05T10:14:51.417Z,27.90
2018-06-05T10:17:21.449Z,28.10
2018-06-05T10:19:50.576Z,28.20
2018-06-05T10:22:19.671Z,28.50
2018-06-05T10:24:49.196Z,28.40
2018-06-05T10:27:18.295Z,28.50
2018-06-05T10:29:47.622Z,28.20
2018-06-05T10:32:16.861Z,28.20
2018-06-05T10:34:46.061Z,28.40
2018-06-05T10:37:15.291Z,28.80
2018-06-05T10:39:44.431Z,28.70
2018-06-05T10:42:13.526Z,28.70
2018-06-05T10:44:42.826Z,28.70
2018-06-05T10:47:12.035Z,28.60
2018-06-05T10:49:41.139Z,28.50
2018-06-05T10:52:10.483Z,28.70
2018-06-05T10:54:39.709Z,28.80
2018-06-05T10:57:08.927Z,28.90
2018-06-05T10:59:38.103Z,29.20
2018-06-05T11:02:07.206Z,29.20
2018-06-05T11:04:36.306Z,29.10
2018-06-05T11:07:05.484Z,29.50
2018-06-05T11:12:03.237Z,29.50
2018-06-05T11:14:32.351Z,29.70
2018-06-05T11:17:01.511Z,29.70
2018-06-05T11:19:31.023Z,29.70
2018-06-05T11:22:00.199Z,29.00
2018-06-05T11:24:29.317Z,28.70
2018-06-05T11:26:58.823Z,28.40
2018-06-05T11:29:28.455Z,28.30
2018-06-05T11:31:57.614Z,28.90
2018-06-05T11:34:26.914Z,29.50
2018-06-05T11:36:56.077Z,29.60
2018-06-05T11:39:25.322Z,29.80
2018-06-05T11:41:54.451Z,30.00
2018-06-05T11:44:23.623Z,30.10
2018-06-05T11:46:52.777Z,30.50
2018-06-05T11:49:22.159Z,30.40
2018-06-05T11:54:20.149Z,29.90
2018-06-05T11:56:49.315Z,29.80
2018-06-05T11:59:18.478Z,29.90
2018-06-05T12:01:47.618Z,30.30
2018-06-05T12:04:16.795Z,30.80
2018-06-05T12:06:45.895Z,30.80
2018-06-05T12:09:15.603Z,30.80
2018-06-05T12:11:44.751Z,30.90
2018-06-05T12:14:13.987Z,31.30
2018-06-05T12:16:43.499Z,31.20
2018-06-05T12:19:13.007Z,31.30
2018-06-05T12:21:42.134Z,31.10
2018-06-05T12:24:12.288Z,31.40
2018-06-05T12:26:41.535Z,31.30
2018-06-05T12:29:10.795Z,31.00
2018-06-05T12:31:40.071Z,30.90
2018-06-05T12:34:09.154Z,31.40
2018-06-05T12:36:38.468Z,31.80
2018-06-05T12:39:09.224Z,32.00
2018-06-05T12:41:38.418Z,31.80
2018-06-05T12:44:07.469Z,32.20
2018-06-05T12:51:34.889Z,32.40
2018-06-05T12:54:04.146Z,32.60
2018-06-05T12:56:33.415Z,32.50
2018-06-05T12:59:02.651Z,32.50
2018-06-05T13:01:31.899Z,32.80
2018-06-05T13:04:01.166Z,33.10
2018-06-05T13:06:30.639Z,32.80
2018-06-05T13:08:59.782Z,32.70
2018-06-05T13:11:28.985Z,32.80
2018-06-05T13:13:58.139Z,32.60
2018-06-05T13:16:27.321Z,32.90
2018-06-05T13:18:56.958Z,33.30
2018-06-05T13:21:26.146Z,33.50
2018-06-05T13:23:55.243Z,33.80
2018-06-05T13:28:53.136Z,33.00
2018-06-05T13:31:22.287Z,33.40
2018-06-05T13:33:51.452Z,33.50
2018-06-05T13:36:20.543Z,33.50
2018-06-05T13:38:49.783Z,33.40
2018-06-05T13:41:19.181Z,33.90
2018-06-05T13:43:48.333Z,34.30
2018-06-05T13:46:17.431Z,34.00
2018-06-05T13:48:46.725Z,34.20
2018-06-05T13:51:15.835Z,34.40
2018-06-05T13:53:45.255Z,34.10
2018-06-05T13:56:14.374Z,34.20
2018-06-05T13:58:43.535Z,34.70
2018-06-05T14:01:12.699Z,34.90
2018-06-05T14:03:41.779Z,35.00
2018-06-05T14:06:10.887Z,34.10
2018-06-05T14:08:40.012Z,34.20
2018-06-05T14:11:09.303Z,34.40
2018-06-05T14:13:38.747Z,34.80
2018-06-05T14:16:07.954Z,34.90
2018-06-05T14:18:37.267Z,34.70
2018-06-05T14:21:06.853Z,34.90
2018-06-05T14:23:36.040Z,35.10
2018-06-05T14:26:05.363Z,35.40
2018-06-05T14:28:34.474Z,35.60
2018-06-05T14:31:03.575Z,35.00
2018-06-05T14:33:32.783Z,34.70
2018-06-05T14:36:02.469Z,35.10
2018-06-05T14:38:32.009Z,35.30
2018-06-05T14:41:01.466Z,35.10
2018-06-05T14:43:30.763Z,35.20
2018-06-05T14:46:00.028Z,35.40
2018-06-05T14:48:29.240Z,35.70
2018-06-05T14:50:59.558Z,35.40
2018-06-05T14:55:58.055Z,35.40
2018-06-05T14:58:27.737Z,35.70
2018-06-05T15:00:57.058Z,35.70
2018-06-05T15:03:27.007Z,35.80
2018-06-05T15:05:56.652Z,36.30
2018-06-05T15:08:25.934Z,36.60
2018-06-05T15:10:55.744Z,36.20
2018-06-05T15:13:25.875Z,36.10
2018-06-05T15:15:55.083Z,36.20
2018-06-05T15:20:53.181Z,35.60
2018-06-05T15:23:22.308Z,34.90
2018-06-05T15:25:51.447Z,35.20
2018-06-05T15:28:20.598Z,35.90
2018-06-05T15:30:49.724Z,36.20
2018-06-05T15:33:19.114Z,36.00
2018-06-05T15:35:48.307Z,36.10
2018-06-05T15:38:17.455Z,35.60
2018-06-05T15:40:46.760Z,36.00
2018-06-05T15:43:15.911Z,36.20
2018-06-05T15:45:45.118Z,36.40
2018-06-05T15:48:14.292Z,36.40
2018-06-05T15:50:43.560Z,36.80
2018-06-05T15:53:12.816Z,37.30
2018-06-05T15:55:42.172Z,36.20
2018-06-05T15:58:11.271Z,35.90
2018-06-05T16:00:40.367Z,36.20
2018-06-05T16:03:09.518Z,36.50
2018-06-05T16:05:38.653Z,36.60
2018-06-05T16:08:07.928Z,36.10
2018-06-05T16:10:37.452Z,36.00
2018-06-05T16:13:06.790Z,36.10
2018-06-05T16:15:38.965Z,35.90
2018-06-05T16:18:08.167Z,35.20
2018-06-05T16:20:37.507Z,33.80
2018-06-05T16:23:06.823Z,32.80
2018-06-05T16:25:36.019Z,31.70
2018-06-05T16:28:05.601Z,30.20
2018-06-05T16:30:34.842Z,29.10
2018-06-05T16:33:03.936Z,28.90
2018-06-05T16:35:33.059Z,29.80
2018-06-05T16:38:02.410Z,31.10
2018-06-05T16:40:32.183Z,32.00
2018-06-05T16:43:01.319Z,32.50
2018-06-05T16:45:30.591Z,31.80
2018-06-05T16:47:59.810Z,32.10
2018-06-05T16:50:29.030Z,32.20
2018-06-05T16:52:58.592Z,32.10
2018-06-05T16:55:27.754Z,32.00
2018-06-05T16:57:57.384Z,32.30
2018-06-05T17:00:26.602Z,32.80
2018-06-05T17:02:55.905Z,33.10
2018-06-05T17:05:25.516Z,31.90
2018-06-05T17:07:54.671Z,31.90
2018-06-05T17:10:23.836Z,32.00
2018-06-05T17:12:52.946Z,32.30
2018-06-05T17:15:22.074Z,32.40
2018-06-05T17:17:51.359Z,32.00
2018-06-05T17:20:20.545Z,30.60
2018-06-05T17:22:49.653Z,30.60
2018-06-05T17:25:18.771Z,30.60
2018-06-05T17:27:47.880Z,30.70
2018-06-05T17:32:45.637Z,30.10
2018-06-05T17:35:14.824Z,30.00
2018-06-05T17:37:44.087Z,30.20
2018-06-05T17:40:13.208Z,29.90
2018-06-05T17:42:42.311Z,29.20
2018-06-05T17:45:11.416Z,28.80
2018-06-05T17:47:40.500Z,28.70
2018-06-05T17:50:09.635Z,28.80
2018-06-05T17:52:38.777Z,28.60
2018-06-05T17:55:07.886Z,27.90
2018-06-05T17:57:36.990Z,27.70
2018-06-05T18:00:06.107Z,27.60
2018-06-05T18:02:35.218Z,27.70
2018-06-05T18:05:04.546Z,27.20
2018-06-05T18:07:33.892Z,26.70
2018-06-05T18:10:03.068Z,26.60
2018-06-05T18:12:32.249Z,26.50
2018-06-05T18:15:01.461Z,26.50
2018-06-05T18:17:30.731Z,26.40
2018-06-05T18:19:59.967Z,26.50
2018-06-05T18:22:29.123Z,26.30
2018-06-05T18:24:58.457Z,26.10
2018-06-05T18:27:27.753Z,25.90
2018-06-05T18:29:56.891Z,26.10
2018-06-05T18:32:26.174Z,26.00
2018-06-05T18:34:55.316Z,25.90
2018-06-05T18:37:24.595Z,25.70
2018-06-05T18:39:53.654Z,25.60
2018-06-05T18:42:22.799Z,25.40
2018-06-05T18:44:51.934Z,25.50
2018-06-05T18:47:21.130Z,25.50
2018-06-05T18:49:50.240Z,25.20
2018-06-05T18:52:19.370Z,25.00
2018-06-05T18:54:48.468Z,25.00
2018-06-05T18:57:17.626Z,24.80
2018-06-05T18:59:46.848Z,24.70
2018-06-05T19:02:15.987Z,24.60
2018-06-05T19:04:45.283Z,24.50
2018-06-05T19:07:14.381Z,24.50
2018-06-05T19:09:43.476Z,24.50
2018-06-05T19:14:41.726Z,24.00
2018-06-05T19:17:10.859Z,23.90
2018-06-05T19:19:39.981Z,23.80
2018-06-05T19:22:09.096Z,23.70
2018-06-05T19:24:38.402Z,23.90
2018-06-05T19:27:07.570Z,23.90
2018-06-05T19:29:36.959Z,23.80
2018-06-05T19:32:06.148Z,23.60
2018-06-05T19:34:35.270Z,23.60
2018-06-05T19:37:04.601Z,23.40
2018-06-05T19:39:33.717Z,23.50
2018-06-05T19:42:02.902Z,23.40
2018-06-05T19:44:32.539Z,23.20
2018-06-05T19:47:01.836Z,23.10
2018-06-05T19:49:31.288Z,23.10
2018-06-05T19:52:00.515Z,23.20
2018-06-05T19:54:29.710Z,23.20
2018-06-05T19:56:58.966Z,23.10
2018-06-05T19:59:28.123Z,23.10
2018-06-05T20:01:57.367Z,23.00
2018-06-05T20:04:26.677Z,22.80
2018-06-05T20:06:55.965Z,22.80
2018-06-05T20:09:25.165Z,22.80
2018-06-05T20:11:54.311Z,22.80
2018-06-05T20:14:23.495Z,22.70
2018-06-05T20:16:52.639Z,22.80
2018-06-05T20:19:21.755Z,22.80
2018-06-05T20:21:50.988Z,22.80
2018-06-05T20:24:20.118Z,22.60
2018-06-05T20:26:49.268Z,22.60
2018-06-05T20:29:18.355Z,22.40
2018-06-05T20:31:47.489Z,22.40
2018-06-05T20:34:16.588Z,22.10
2018-06-05T20:36:45.737Z,22.10
2018-06-05T20:39:14.999Z,22.20
2018-06-05T20:41:44.124Z,22.10
2018-06-05T20:44:13.271Z,22.00
2018-06-05T20:46:42.391Z,22.00
2018-06-05T20:49:11.540Z,21.80
2018-06-05T20:51:40.659Z,21.90
2018-06-05T20:54:09.779Z,21.80
2018-06-05T20:56:38.984Z,21.80
2018-06-05T20:59:08.100Z,21.80
2018-06-05T21:01:37.355Z,21.70
2018-06-05T21:04:06.539Z,21.60
2018-06-05T21:06:35.655Z,21.40
2018-06-05T21:09:06.576Z,21.30
2018-06-05T21:11:35.733Z,21.30
2018-06-05T21:14:04.900Z,21.40
2018-06-05T21:16:33.992Z,21.40
2018-06-05T21:19:03.288Z,21.40
2018-06-05T21:21:32.576Z,21.30
2018-06-05T21:24:01.773Z,21.20
2018-06-05T21:26:30.958Z,21.20
2018-06-05T21:29:00.260Z,21.10
2018-06-05T21:31:29.401Z,21.10
2018-06-05T21:33:58.606Z,21.10
2018-06-05T21:36:27.982Z,21.10
2018-06-05T21:38:57.174Z,21.00
2018-06-05T21:41:26.312Z,21.00
2018-06-05T21:43:55.723Z,20.90
2018-06-05T21:46:24.844Z,20.80
2018-06-05T21:48:53.945Z,20.80
2018-06-05T21:51:23.088Z,20.80
2018-06-05T21:53:52.196Z,20.80
2018-06-05T21:56:21.308Z,20.70
2018-06-05T21:58:50.689Z,20.70
2018-06-05T22:01:19.955Z,20.60
2018-06-05T22:03:49.039Z,20.50
2018-06-05T22:06:18.155Z,20.60
2018-06-05T22:08:47.355Z,20.50
2018-06-05T22:11:16.479Z,20.50
2018-06-05T22:13:45.611Z,20.50
2018-06-05T22:16:14.778Z,20.50
2018-06-05T22:18:44.999Z,20.40
2018-06-05T22:21:14.243Z,20.40
2018-06-05T22:23:43.411Z,20.40
2018-06-05T22:26:13.202Z,20.40
2018-06-05T22:28:42.331Z,20.30
2018-06-05T22:33:40.108Z,20.20
2018-06-05T22:36:09.209Z,20.10
2018-06-05T22:38:38.334Z,20.00
2018-06-05T22:41:07.497Z,20.00
2018-06-05T22:43:36.632Z,20.10
2018-06-05T22:46:05.827Z,20.10
2018-06-05T22:48:34.951Z,20.00
2018-06-05T22:51:04.095Z,20.00
2018-06-05T22:56:01.920Z,20.00
2018-06-05T22:58:31.196Z,19.90
2018-06-05T23:01:00.507Z,19.80
2018-06-05T23:03:29.775Z,19.80
2018-06-05T23:05:58.898Z,19.80
2018-06-05T23:08:28.143Z,19.90
2018-06-05T23:10:57.251Z,19.90
2018-06-05T23:13:26.380Z,19.80
2018-06-05T23:15:55.635Z,19.80
2018-06-05T23:18:24.766Z,19.60
2018-06-05T23:20:53.939Z,19.60
2018-06-05T23:23:23.107Z,19.60
2018-06-05T23:25:52.231Z,19.60
2018-06-05T23:28:21.340Z,19.60
2018-06-05T23:30:50.581Z,19.50
2018-06-05T23:33:19.654Z,19.50
2018-06-05T23:35:48.791Z,19.40
2018-06-05T23:38:18.467Z,19.40
2018-06-05T23:40:47.646Z,19.30
2018-06-05T23:43:16.755Z,19.30
2018-06-05T23:45:45.983Z,19.40
2018-06-05T23:48:15.116Z,19.40
2018-06-05T23:50:44.230Z,19.30
2018-06-05T23:53:13.348Z,19.30
2018-06-05T23:55:42.444Z,19.30
2018-06-05T23:58:11.555Z,19.20
